TNCA/AUA METAR and TAF weather

Enter ICAO airport designator
Station Type Date Time Source
TNCA METAR 2019/08/24 22:00 UTC NOAA

TNCA 242200Z 07023G33KT 9999 FEW025 30/25 Q1009 NOSIG


Station Type Date Time Source
TNCA Decoded METAR 2019/08/24 22:00 UTC NOAA

Station name not available
Aug 24, 2019 - 06:00 PM EDT / 2019.08.24 2200 UTC
Wind: from the ENE (070 degrees) at 26 MPH (23 KT) gusting to 38 MPH (33 KT):0
Visibility: greater than 7 mile(s):0
Sky conditions: mostly clear
Temperature: 86 F (30 C)
Heat index: 96.8 F (36.0 C):1
Dew Point: 77 F (25 C)
Relative Humidity: 74%
Pressure (altimeter): 29.80 in. Hg (1009 hPa)
ob: TNCA 242200Z 07023G33KT 9999 FEW025 30/25 Q1009 NOSIG
cycle: 22

Station Type Date Time Source
TNCA TAF 2019/08/24 18:27 UTC NOAA

TAF COR TNCA 241800Z 2418/2518 09025G35KT 9999 FEW025

Example: see airport list